createdAt,value
2022-11-29T00:01:01.716Z,6.97
2022-11-29T00:03:28.756Z,6.87
2022-11-29T00:05:55.978Z,6.91
2022-11-29T00:08:23.967Z,6.96
2022-11-29T00:10:50.742Z,6.96
2022-11-29T00:13:18.109Z,6.90
2022-11-29T00:15:44.554Z,6.93
2022-11-29T00:18:11.301Z,6.86
2022-11-29T00:20:39.122Z,6.93
2022-11-29T00:23:05.713Z,6.95
2022-11-29T00:25:32.128Z,6.92
2022-11-29T00:27:58.551Z,6.95
2022-11-29T00:30:25.333Z,6.90
2022-11-29T00:32:51.796Z,6.94
2022-11-29T00:35:18.346Z,6.93
2022-11-29T00:37:45.213Z,6.90
2022-11-29T00:40:12.007Z,6.88
2022-11-29T00:42:38.431Z,6.91
2022-11-29T00:45:05.398Z,6.86
2022-11-29T00:47:31.801Z,6.88
2022-11-29T00:49:58.220Z,6.88
2022-11-29T00:52:24.636Z,6.88
2022-11-29T00:54:51.224Z,6.90
2022-11-29T00:57:17.595Z,6.90
2022-11-29T00:59:44.004Z,6.89
2022-11-29T01:02:10.941Z,6.82
2022-11-29T01:04:37.402Z,6.85
2022-11-29T01:07:03.888Z,6.88
2022-11-29T01:09:30.385Z,6.87
2022-11-29T01:11:56.776Z,6.85
2022-11-29T01:14:23.229Z,6.80
2022-11-29T01:16:49.660Z,6.83
2022-11-29T01:19:16.063Z,6.82
2022-11-29T01:21:42.543Z,6.82
2022-11-29T01:24:08.951Z,6.78
2022-11-29T01:26:35.510Z,6.79
2022-11-29T01:29:01.997Z,6.79
2022-11-29T01:31:35.894Z,6.77
2022-11-29T01:34:03.982Z,6.76
2022-11-29T01:36:31.048Z,6.69
2022-11-29T01:39:00.273Z,6.68
2022-11-29T01:41:29.493Z,6.76
2022-11-29T01:43:58.750Z,6.76
2022-11-29T01:46:26.194Z,6.68
2022-11-29T01:48:57.513Z,6.72
2022-11-29T01:51:25.963Z,6.65
2022-11-29T01:53:53.386Z,6.71
2022-11-29T01:56:20.679Z,6.72
2022-11-29T01:58:47.511Z,6.63
2022-11-29T02:01:14.592Z,6.72
2022-11-29T02:03:41.241Z,6.68
2022-11-29T02:06:07.928Z,6.66
2022-11-29T02:08:41.140Z,6.74
2022-11-29T02:11:22.494Z,6.75
2022-11-29T02:14:20.943Z,6.74
2022-11-29T02:16:56.300Z,6.74
2022-11-29T02:19:59.958Z,6.76
2022-11-29T02:22:50.365Z,6.67
2022-11-29T02:25:50.693Z,6.74
2022-11-29T02:28:19.788Z,6.81
2022-11-29T02:31:10.923Z,6.70
2022-11-29T02:33:52.678Z,6.68
2022-11-29T02:36:31.436Z,6.53
2022-11-29T02:39:13.242Z,6.64
2022-11-29T02:41:45.634Z,6.60
2022-11-29T02:44:36.674Z,6.61
2022-11-29T02:47:06.070Z,6.59
2022-11-29T02:50:07.660Z,6.63
2022-11-29T02:52:37.149Z,6.58
2022-11-29T02:55:15.593Z,6.56
2022-11-29T02:58:09.149Z,6.61
2022-11-29T03:00:41.412Z,6.56
2022-11-29T03:03:36.917Z,6.55
2022-11-29T03:06:28.613Z,6.56
2022-11-29T03:09:30.257Z,6.58
2022-11-29T03:12:15.455Z,6.57
2022-11-29T03:15:08.201Z,6.57
2022-11-29T03:18:00.077Z,6.54
2022-11-29T03:20:49.835Z,6.56
2022-11-29T03:23:19.867Z,6.55
2022-11-29T03:26:01.188Z,6.52
2022-11-29T03:28:45.998Z,6.53
2022-11-29T03:31:25.869Z,6.53
2022-11-29T03:34:32.775Z,6.53
2022-11-29T03:37:11.307Z,6.51
2022-11-29T03:39:45.395Z,6.47
2022-11-29T03:42:19.452Z,6.49
2022-11-29T03:45:28.642Z,6.55
2022-11-29T03:48:07.753Z,6.49
2022-11-29T03:50:50.653Z,6.48
2022-11-29T03:53:38.942Z,6.50
2022-11-29T03:56:30.667Z,6.39
2022-11-29T03:59:28.933Z,6.47
2022-11-29T04:02:23.300Z,6.48
2022-11-29T04:05:23.125Z,6.49
2022-11-29T04:08:14.196Z,6.49
2022-11-29T04:10:52.894Z,6.48
2022-11-29T04:13:41.030Z,6.48
2022-11-29T04:16:21.667Z,6.47
2022-11-29T04:19:00.251Z,6.48
2022-11-29T04:21:32.582Z,6.49
2022-11-29T04:24:17.786Z,6.49
2022-11-29T04:27:34.284Z,6.56
2022-11-29T04:30:16.473Z,6.52
2022-11-29T04:33:16.758Z,6.56
2022-11-29T04:36:01.448Z,6.63
2022-11-29T04:39:02.854Z,6.56
2022-11-29T04:42:11.096Z,6.56
2022-11-29T04:44:50.227Z,6.54
2022-11-29T04:47:38.716Z,6.53
2022-11-29T04:50:18.225Z,6.44
2022-11-29T04:53:08.669Z,6.56
2022-11-29T04:55:44.074Z,6.55
2022-11-29T04:58:34.221Z,6.54
2022-11-29T05:01:09.707Z,6.50
2022-11-29T05:03:46.988Z,6.55
2022-11-29T05:06:29.175Z,6.56
2022-11-29T05:09:04.786Z,6.56
2022-11-29T05:12:04.134Z,6.57
2022-11-29T05:14:49.340Z,6.57
2022-11-29T05:17:53.369Z,6.57
2022-11-29T05:20:28.842Z,6.54
2022-11-29T05:23:20.005Z,6.56
2022-11-29T05:26:07.533Z,6.54
2022-11-29T05:29:03.105Z,6.53
2022-11-29T05:31:48.664Z,6.55
2022-11-29T05:34:42.461Z,6.54
2022-11-29T05:37:15.091Z,6.51
2022-11-29T05:40:17.611Z,6.49
2022-11-29T05:43:02.381Z,6.55
2022-11-29T05:45:41.003Z,6.52
2022-11-29T05:48:14.247Z,6.43
2022-11-29T05:50:47.980Z,6.48
2022-11-29T05:53:31.281Z,6.50
2022-11-29T05:56:26.271Z,6.54
2022-11-29T05:59:07.477Z,6.48
2022-11-29T06:01:55.257Z,6.54
2022-11-29T06:04:33.296Z,6.48
2022-11-29T06:07:20.003Z,6.51
2022-11-29T06:10:00.598Z,6.45
2022-11-29T06:12:31.252Z,6.42
2022-11-29T06:15:17.542Z,6.44
2022-11-29T06:18:03.187Z,6.49
2022-11-29T06:20:35.474Z,6.47
2022-11-29T06:23:10.870Z,6.45
2022-11-29T06:26:16.717Z,6.46
2022-11-29T06:29:04.479Z,6.42
2022-11-29T06:31:39.476Z,6.41
2022-11-29T06:34:27.645Z,6.39
2022-11-29T06:37:19.974Z,6.42
2022-11-29T06:39:46.947Z,6.33
2022-11-29T06:42:13.343Z,6.36
2022-11-29T06:44:40.192Z,6.33
2022-11-29T06:47:23.320Z,6.38
2022-11-29T06:49:58.909Z,6.37
2022-11-29T06:52:42.790Z,6.39
2022-11-29T06:55:24.429Z,6.34
2022-11-29T06:57:53.985Z,6.37
2022-11-29T07:00:30.380Z,6.39
2022-11-29T07:03:06.629Z,6.38
2022-11-29T07:05:36.670Z,6.38
2022-11-29T07:08:13.962Z,6.38
2022-11-29T07:10:42.878Z,6.37
2022-11-29T07:13:15.989Z,6.38
2022-11-29T07:16:31.981Z,6.41
2022-11-29T07:18:58.390Z,6.38
2022-11-29T07:21:59.043Z,6.41
2022-11-29T07:24:49.210Z,6.41
2022-11-29T07:27:57.166Z,6.41
2022-11-29T07:30:52.236Z,6.43
2022-11-29T07:33:48.893Z,6.43
2022-11-29T07:36:38.888Z,6.43
2022-11-29T07:39:08.239Z,6.40
2022-11-29T07:42:25.443Z,6.43
2022-11-29T07:45:00.804Z,6.41
2022-11-29T07:47:31.258Z,6.40
2022-11-29T07:50:00.631Z,6.40
2022-11-29T07:52:28.221Z,6.44
2022-11-29T07:54:56.379Z,6.47
2022-11-29T07:57:22.827Z,6.49
2022-11-29T07:59:49.318Z,6.51
2022-11-29T08:02:26.650Z,6.46
2022-11-29T08:04:53.175Z,6.53
2022-11-29T08:07:19.615Z,6.47
2022-11-29T08:09:46.215Z,6.54
2022-11-29T08:12:13.074Z,6.55
2022-11-29T08:14:39.628Z,6.55
2022-11-29T08:17:06.157Z,6.57
2022-11-29T08:19:32.564Z,6.57
2022-11-29T08:21:58.983Z,6.57
2022-11-29T08:24:26.758Z,6.63
2022-11-29T08:26:53.403Z,6.56
2022-11-29T08:29:20.229Z,6.62
2022-11-29T08:31:53.273Z,6.58
2022-11-29T08:34:21.084Z,6.68
2022-11-29T08:36:49.414Z,6.64
2022-11-29T08:39:16.311Z,6.71
2022-11-29T08:41:43.045Z,6.69
2022-11-29T08:44:09.986Z,6.65
2022-11-29T08:46:55.087Z,6.68
2022-11-29T08:49:21.539Z,6.73
2022-11-29T08:51:47.966Z,6.73
2022-11-29T08:54:14.460Z,6.72
2022-11-29T08:59:27.574Z,6.78
2022-11-29T09:01:54.145Z,6.84
2022-11-29T09:04:20.637Z,6.86
2022-11-29T09:06:49.565Z,6.88
2022-11-29T09:09:16.584Z,6.85
2022-11-29T09:11:45.882Z,6.85
2022-11-29T09:14:17.122Z,6.94
2022-11-29T09:16:43.611Z,6.95
2022-11-29T09:19:10.785Z,7.03
2022-11-29T09:21:37.401Z,7.04
2022-11-29T09:24:06.467Z,7.10
2022-11-29T09:26:35.877Z,7.05
2022-11-29T09:29:04.455Z,7.15
2022-11-29T09:31:31.613Z,7.16
2022-11-29T09:33:58.345Z,7.16
2022-11-29T09:36:28.528Z,7.15
2022-11-29T09:38:58.386Z,7.18
2022-11-29T09:41:52.528Z,7.21
2022-11-29T09:44:18.851Z,7.20
2022-11-29T09:47:17.122Z,7.24
2022-11-29T09:49:52.409Z,7.23
2022-11-29T09:52:40.962Z,7.27
2022-11-29T09:55:29.169Z,7.29
2022-11-29T09:57:59.058Z,7.28
2022-11-29T10:00:26.089Z,7.28
2022-11-29T10:02:58.379Z,7.32
2022-11-29T10:05:47.548Z,7.31
2022-11-29T10:08:16.915Z,7.33
2022-11-29T10:10:47.897Z,7.34
2022-11-29T10:13:23.746Z,7.35
2022-11-29T10:15:56.286Z,7.36
2022-11-29T10:18:35.029Z,7.36
2022-11-29T10:21:11.090Z,7.37
2022-11-29T10:23:46.334Z,7.40
2022-11-29T10:26:13.302Z,7.34
2022-11-29T10:28:44.929Z,7.44
2022-11-29T10:31:27.497Z,7.49
2022-11-29T10:33:56.185Z,7.48
2022-11-29T10:36:22.667Z,7.50
2022-11-29T10:38:51.459Z,7.51
2022-11-29T10:41:22.554Z,7.51
2022-11-29T10:43:50.914Z,7.53
2022-11-29T10:46:30.258Z,7.54
2022-11-29T10:48:59.329Z,7.53
2022-11-29T10:51:25.935Z,7.39
2022-11-29T10:53:54.712Z,7.47
2022-11-29T10:56:31.214Z,7.45
2022-11-29T10:59:08.948Z,7.41
2022-11-29T11:01:44.020Z,7.39
2022-11-29T11:04:17.304Z,7.38
2022-11-29T11:06:51.499Z,7.37
2022-11-29T11:09:26.641Z,7.49
2022-11-29T11:11:57.084Z,7.50
2022-11-29T11:14:26.973Z,7.43
2022-11-29T11:16:54.023Z,7.48
2022-11-29T11:19:31.585Z,7.47
2022-11-29T11:22:00.734Z,7.55
2022-11-29T11:24:30.561Z,7.56
2022-11-29T11:26:57.881Z,7.63
2022-11-29T11:29:43.738Z,7.67
2022-11-29T11:32:20.029Z,7.66
2022-11-29T11:35:00.994Z,7.71
2022-11-29T11:37:32.380Z,7.66
2022-11-29T11:40:01.321Z,7.72
2022-11-29T11:42:40.280Z,7.75
2022-11-29T11:45:37.087Z,7.77
2022-11-29T11:48:14.967Z,7.74
2022-11-29T11:50:50.613Z,7.65
2022-11-29T11:53:37.800Z,7.78
2022-11-29T11:56:08.489Z,7.73
2022-11-29T11:58:49.516Z,7.77
2022-11-29T12:01:25.293Z,7.78
2022-11-29T12:03:51.689Z,7.78
2022-11-29T12:06:37.357Z,7.78
2022-11-29T12:09:27.994Z,7.81
2022-11-29T12:12:03.650Z,7.79
2022-11-29T12:14:46.249Z,7.74
2022-11-29T12:17:22.660Z,7.79
2022-11-29T12:20:07.600Z,7.81
2022-11-29T12:22:46.606Z,7.78
2022-11-29T12:25:23.790Z,7.80
2022-11-29T12:27:51.219Z,7.73
2022-11-29T12:30:20.535Z,7.69
2022-11-29T12:32:59.929Z,7.82
2022-11-29T12:35:53.165Z,7.83
2022-11-29T12:38:39.337Z,7.75
2022-11-29T12:41:32.207Z,7.82
2022-11-29T12:44:15.301Z,7.75
2022-11-29T12:47:02.152Z,7.75
2022-11-29T12:50:01.065Z,7.76
2022-11-29T12:52:41.438Z,7.72
2022-11-29T12:55:28.561Z,7.72
2022-11-29T12:58:13.942Z,7.69
2022-11-29T13:00:58.554Z,7.68
2022-11-29T13:03:36.715Z,7.65
2022-11-29T13:06:17.921Z,7.62
2022-11-29T13:08:50.500Z,7.64
2022-11-29T13:11:27.957Z,7.64
2022-11-29T13:14:40.821Z,7.65
2022-11-29T13:17:04.281Z,7.67
2022-11-29T13:19:39.049Z,7.68
2022-11-29T13:22:46.426Z,7.71
2022-11-29T13:25:24.390Z,7.71
2022-11-29T13:28:28.483Z,7.73
2022-11-29T13:31:02.308Z,7.62
2022-11-29T13:33:42.655Z,7.67
2022-11-29T13:36:21.238Z,7.75
2022-11-29T13:39:02.617Z,7.69
2022-11-29T13:41:48.272Z,7.67
2022-11-29T13:44:27.300Z,7.67
2022-11-29T13:47:14.984Z,7.65
2022-11-29T13:49:53.418Z,7.66
2022-11-29T13:52:38.397Z,7.62
2022-11-29T13:55:04.860Z,7.59
2022-11-29T14:00:44.895Z,7.56
2022-11-29T14:03:23.401Z,7.55
2022-11-29T14:06:03.493Z,7.48
2022-11-29T14:08:47.672Z,7.49
2022-11-29T14:11:20.785Z,7.48
2022-11-29T14:14:02.758Z,7.49
2022-11-29T14:16:46.373Z,7.47
2022-11-29T14:19:23.783Z,7.44
2022-11-29T14:22:17.268Z,7.45
2022-11-29T14:24:56.771Z,7.37
2022-11-29T14:27:23.116Z,7.41
2022-11-29T14:29:49.678Z,7.40
2022-11-29T14:32:46.379Z,7.40
2022-11-29T14:35:13.284Z,7.38
2022-11-29T14:38:19.173Z,7.42
2022-11-29T14:40:59.935Z,7.33
2022-11-29T14:43:38.186Z,7.38
2022-11-29T14:46:16.766Z,7.37
2022-11-29T14:48:55.764Z,7.35
2022-11-29T14:51:25.908Z,7.33
2022-11-29T14:54:06.491Z,7.33
2022-11-29T14:56:34.927Z,7.31
2022-11-29T14:59:38.891Z,7.33
2022-11-29T15:02:20.984Z,7.27
2022-11-29T15:04:50.009Z,7.15
2022-11-29T15:07:23.915Z,7.27
2022-11-29T15:09:50.936Z,7.20
2022-11-29T15:12:21.524Z,7.23
2022-11-29T15:15:18.605Z,7.27
2022-11-29T15:18:12.220Z,7.27
2022-11-29T15:21:14.065Z,7.23
2022-11-29T15:23:42.920Z,7.23
2022-11-29T15:26:21.124Z,7.24
2022-11-29T15:28:48.104Z,7.15
2022-11-29T15:31:18.740Z,7.21
2022-11-29T15:33:48.053Z,7.10
2022-11-29T15:36:21.051Z,7.22
2022-11-29T15:38:48.580Z,7.21
2022-11-29T15:41:35.460Z,7.22
2022-11-29T15:44:05.570Z,7.20
2022-11-29T15:46:34.577Z,7.19
2022-11-29T15:49:25.719Z,7.23
2022-11-29T15:52:01.003Z,7.20
2022-11-29T15:54:37.123Z,7.10
2022-11-29T15:57:13.839Z,7.20
2022-11-29T15:59:48.562Z,7.21
2022-11-29T16:02:20.853Z,7.22
2022-11-29T16:04:50.415Z,7.18
2022-11-29T16:07:20.213Z,7.21
2022-11-29T16:10:10.505Z,7.23
2022-11-29T16:12:55.645Z,7.20
2022-11-29T16:15:37.202Z,7.22
2022-11-29T16:18:14.284Z,7.19
2022-11-29T16:20:40.824Z,7.15
2022-11-29T16:23:15.462Z,7.21
2022-11-29T16:25:59.117Z,7.21
2022-11-29T16:28:31.356Z,7.14
2022-11-29T16:30:58.487Z,7.16
2022-11-29T16:33:25.008Z,7.20
2022-11-29T16:36:02.352Z,7.18
2022-11-29T16:38:28.912Z,7.15
2022-11-29T16:41:34.922Z,7.21
2022-11-29T16:44:06.063Z,7.14
2022-11-29T16:46:41.871Z,7.18
2022-11-29T16:49:36.016Z,7.22
2022-11-29T16:52:04.315Z,7.17
2022-11-29T16:54:35.519Z,7.19
2022-11-29T16:57:06.249Z,7.21
2022-11-29T16:59:36.525Z,7.20
2022-11-29T17:02:05.763Z,7.33
2022-11-29T17:04:32.315Z,7.24
2022-11-29T17:06:59.515Z,7.19
2022-11-29T17:09:29.498Z,7.22
2022-11-29T17:11:56.782Z,7.23
2022-11-29T17:14:23.431Z,7.21
2022-11-29T17:16:50.408Z,7.23
2022-11-29T17:19:18.236Z,7.23
2022-11-29T17:21:45.344Z,7.20
2022-11-29T17:24:15.566Z,7.22
2022-11-29T17:26:42.559Z,7.33
2022-11-29T17:29:14.258Z,7.21
2022-11-29T17:31:42.292Z,7.20
2022-11-29T17:34:08.917Z,7.17
2022-11-29T17:36:35.389Z,7.17
2022-11-29T17:39:03.329Z,7.17
2022-11-29T17:41:33.949Z,7.12
2022-11-29T17:44:00.718Z,7.17
2022-11-29T17:46:32.449Z,7.18
2022-11-29T17:49:00.591Z,7.16
2022-11-29T17:54:13.714Z,7.15
2022-11-29T17:56:40.119Z,7.18
2022-11-29T17:59:06.577Z,7.11
2022-11-29T18:01:35.602Z,7.18
2022-11-29T18:04:03.982Z,7.16
2022-11-29T18:06:37.804Z,7.20
2022-11-29T18:09:05.920Z,7.18
2022-11-29T18:11:43.291Z,7.19
2022-11-29T18:14:15.353Z,7.21
2022-11-29T18:16:41.974Z,7.22
2022-11-29T18:19:11.806Z,7.23
2022-11-29T18:21:38.434Z,7.21
2022-11-29T18:24:06.021Z,7.22
2022-11-29T18:26:34.105Z,7.25
2022-11-29T18:29:00.840Z,7.26
2022-11-29T18:31:33.313Z,7.25
2022-11-29T18:34:02.190Z,7.26
2022-11-29T18:36:35.017Z,7.28
2022-11-29T18:39:05.285Z,7.26
2022-11-29T18:41:32.080Z,7.40
2022-11-29T18:44:05.124Z,7.31
2022-11-29T18:46:36.759Z,7.27
2022-11-29T18:49:05.284Z,7.28
2022-11-29T18:51:32.290Z,7.23
2022-11-29T18:53:59.234Z,7.25
2022-11-29T18:56:28.263Z,7.25
2022-11-29T18:58:58.461Z,7.19
2022-11-29T19:01:27.532Z,7.28
2022-11-29T19:03:56.087Z,7.27
2022-11-29T19:06:25.250Z,7.28
2022-11-29T19:08:52.739Z,7.25
2022-11-29T19:11:21.855Z,7.26
2022-11-29T19:13:55.079Z,7.27
2022-11-29T19:16:25.331Z,7.27
2022-11-29T19:18:53.001Z,7.37
2022-11-29T19:21:20.741Z,7.27
2022-11-29T19:23:55.193Z,7.21
2022-11-29T19:26:23.123Z,7.23
2022-11-29T19:28:49.900Z,7.18
2022-11-29T19:31:18.890Z,7.23
2022-11-29T19:33:46.486Z,7.19
2022-11-29T19:36:22.314Z,7.14
2022-11-29T19:38:53.340Z,7.19
2022-11-29T19:41:22.048Z,7.24
2022-11-29T19:43:48.971Z,7.23
2022-11-29T19:46:18.904Z,7.22
2022-11-29T19:48:45.964Z,7.18
2022-11-29T19:51:16.507Z,7.20
2022-11-29T19:53:43.688Z,7.21
2022-11-29T19:56:15.734Z,7.15
2022-11-29T19:58:43.119Z,7.17
2022-11-29T20:01:12.249Z,7.15
2022-11-29T20:03:39.489Z,7.12
2022-11-29T20:06:06.770Z,7.21
2022-11-29T20:08:33.524Z,7.20
2022-11-29T20:11:20.710Z,7.22
2022-11-29T20:13:53.145Z,7.22
2022-11-29T20:16:20.108Z,7.17
2022-11-29T20:18:51.237Z,7.12
2022-11-29T20:21:20.934Z,7.21
2022-11-29T20:23:48.916Z,7.18
2022-11-29T20:26:18.976Z,7.23
2022-11-29T20:28:47.301Z,7.22
2022-11-29T20:31:16.406Z,7.18
2022-11-29T20:33:44.922Z,7.16
2022-11-29T20:36:47.837Z,7.25
2022-11-29T20:39:23.893Z,7.24
2022-11-29T20:41:53.464Z,7.22
2022-11-29T20:44:24.205Z,7.23
2022-11-29T20:46:50.903Z,7.23
2022-11-29T20:49:18.158Z,7.22
2022-11-29T20:51:53.246Z,7.21
2022-11-29T20:54:20.110Z,7.23
2022-11-29T20:56:46.577Z,7.21
2022-11-29T20:59:13.078Z,7.21
2022-11-29T21:01:39.705Z,7.19
2022-11-29T21:04:06.277Z,7.16
2022-11-29T21:06:37.654Z,7.18
2022-11-29T21:09:04.771Z,7.16
2022-11-29T21:11:32.207Z,7.20
2022-11-29T21:13:58.850Z,7.20
2022-11-29T21:16:29.437Z,7.22
2022-11-29T21:18:59.959Z,7.18
2022-11-29T21:21:30.165Z,7.21
2022-11-29T21:23:59.322Z,7.33
2022-11-29T21:26:44.591Z,7.26
2022-11-29T21:29:14.150Z,7.24
2022-11-29T21:31:41.091Z,7.18
2022-11-29T21:34:08.573Z,7.17
2022-11-29T21:36:36.897Z,7.20
2022-11-29T21:39:05.613Z,7.16
2022-11-29T21:41:32.344Z,7.13
2022-11-29T21:44:06.713Z,7.21
2022-11-29T21:46:34.321Z,7.22
2022-11-29T21:49:00.799Z,7.19
2022-11-29T21:51:27.211Z,7.19
2022-11-29T21:53:53.666Z,7.20
2022-11-29T21:56:20.051Z,7.14
2022-11-29T21:58:46.475Z,7.13
2022-11-29T22:01:16.738Z,7.21
2022-11-29T22:03:43.525Z,7.31
2022-11-29T22:06:12.166Z,7.22
2022-11-29T22:08:40.876Z,7.18
2022-11-29T22:11:13.307Z,7.20
2022-11-29T22:14:01.503Z,7.19
2022-11-29T22:16:29.364Z,7.18
2022-11-29T22:18:55.990Z,7.17
2022-11-29T22:21:22.576Z,7.19
2022-11-29T22:23:48.967Z,7.18
2022-11-29T22:26:15.562Z,7.16
2022-11-29T22:28:42.020Z,7.13
2022-11-29T22:31:11.084Z,7.13
2022-11-29T22:33:38.626Z,7.18
2022-11-29T22:36:11.080Z,7.17
2022-11-29T22:38:38.512Z,7.17
2022-11-29T22:41:08.038Z,7.18
2022-11-29T22:43:34.912Z,7.17
2022-11-29T22:46:05.646Z,7.17
2022-11-29T22:48:38.188Z,7.15
2022-11-29T22:51:17.366Z,7.15
2022-11-29T22:53:54.221Z,7.18
2022-11-29T22:56:22.114Z,7.17
2022-11-29T22:58:48.618Z,7.17
2022-11-29T23:01:17.334Z,7.18
2022-11-29T23:03:48.062Z,7.19
2022-11-29T23:06:17.047Z,7.18
2022-11-29T23:08:44.812Z,7.16
2022-11-29T23:11:13.932Z,7.16
2022-11-29T23:13:41.866Z,7.17
2022-11-29T23:16:11.889Z,7.17
2022-11-29T23:18:39.779Z,7.17
2022-11-29T23:21:12.530Z,7.17
2022-11-29T23:23:38.966Z,7.11
2022-11-29T23:26:06.835Z,7.16
2022-11-29T23:28:34.678Z,7.16
2022-11-29T23:31:01.402Z,7.12
2022-11-29T23:33:28.324Z,7.13
2022-11-29T23:36:03.339Z,7.16
2022-11-29T23:38:29.786Z,7.14
2022-11-29T23:40:56.825Z,7.15
2022-11-29T23:43:23.644Z,7.14
2022-11-29T23:45:50.811Z,7.15
2022-11-29T23:48:17.467Z,7.11
2022-11-29T23:50:43.878Z,7.11
2022-11-29T23:53:13.187Z,7.14
2022-11-29T23:55:39.904Z,7.15
2022-11-29T23:58:09.451Z,7.15
